createdAt,value
2018-09-26T00:05:52.465Z,84.61
2018-09-26T00:11:57.066Z,83.87
2018-09-26T00:18:01.929Z,83.73
2018-09-26T00:24:06.633Z,83.90
2018-09-26T00:30:11.451Z,83.87
2018-09-26T00:36:16.070Z,83.62
2018-09-26T00:42:21.405Z,84.50
2018-09-26T00:48:25.949Z,84.83
2018-09-26T00:54:30.535Z,84.62
2018-09-26T01:00:35.125Z,84.17
2018-09-26T01:06:39.975Z,84.04
2018-09-26T01:12:44.553Z,84.69
2018-09-26T01:18:49.467Z,85.89
2018-09-26T01:24:54.013Z,85.97
2018-09-26T01:30:58.967Z,86.25
2018-09-26T01:37:03.640Z,86.03
2018-09-26T01:43:08.217Z,85.52
2018-09-26T01:49:13.635Z,85.80
2018-09-26T01:55:18.207Z,86.21
2018-09-26T02:01:22.806Z,85.93
2018-09-26T02:07:27.425Z,85.52
2018-09-26T02:13:31.992Z,85.12
2018-09-26T02:19:36.571Z,85.10
2018-09-26T02:25:41.162Z,84.45
2018-09-26T02:31:45.702Z,84.39
2018-09-26T02:37:50.341Z,83.76
2018-09-26T02:43:54.998Z,84.10
2018-09-26T02:49:59.893Z,84.20
2018-09-26T02:56:05.083Z,83.90
2018-09-26T03:02:09.720Z,84.47
2018-09-26T03:08:14.675Z,84.63
2018-09-26T03:14:19.294Z,84.41
2018-09-26T03:20:24.165Z,84.06
2018-09-26T03:26:28.754Z,83.02
2018-09-26T03:32:33.618Z,83.32
2018-09-26T03:38:38.218Z,83.44
2018-09-26T03:44:42.751Z,84.30
2018-09-26T03:50:47.347Z,84.53
2018-09-26T03:56:51.910Z,84.26
2018-09-26T04:02:56.538Z,84.97
2018-09-26T04:09:01.074Z,84.25
2018-09-26T04:15:05.772Z,84.28
2018-09-26T04:21:10.400Z,84.88
2018-09-26T04:27:15.051Z,85.01
2018-09-26T04:33:20.056Z,84.01
2018-09-26T04:39:24.394Z,83.72
2018-09-26T04:45:29.828Z,83.00
2018-09-26T04:51:34.765Z,83.23
2018-09-26T04:57:39.746Z,83.28
2018-09-26T05:03:44.697Z,83.73
2018-09-26T05:09:49.295Z,83.76
2018-09-26T05:15:53.856Z,83.59
2018-09-26T05:21:59.064Z,83.86
2018-09-26T05:28:03.926Z,83.91
2018-09-26T05:34:08.537Z,83.50
2018-09-26T05:40:13.086Z,83.38
2018-09-26T05:46:17.674Z,81.83
2018-09-26T05:52:22.243Z,82.90
2018-09-26T05:58:26.793Z,81.69
2018-09-26T06:04:31.359Z,80.09
2018-09-26T06:10:35.919Z,79.69
2018-09-26T06:16:40.809Z,79.21
2018-09-26T06:22:45.728Z,78.63
2018-09-26T06:28:50.270Z,75.49
2018-09-26T06:34:54.850Z,71.00
2018-09-26T06:40:59.770Z,71.13
2018-09-26T06:47:05.197Z,70.44
2018-09-26T06:53:09.744Z,69.89
2018-09-26T06:59:14.712Z,67.79
2018-09-26T07:05:19.601Z,63.69
2018-09-26T07:11:24.168Z,63.53
2018-09-26T07:17:28.753Z,58.40
2018-09-26T07:23:33.378Z,58.67
2018-09-26T07:29:37.950Z,59.71
2018-09-26T07:35:42.588Z,60.35
2018-09-26T07:41:47.106Z,60.91
2018-09-26T07:47:51.698Z,61.57
2018-09-26T07:53:56.598Z,61.49
2018-09-26T08:00:01.282Z,61.48
2018-09-26T08:06:07.590Z,59.52
2018-09-26T08:12:12.162Z,59.33
2018-09-26T08:18:16.848Z,59.43
2018-09-26T08:24:22.673Z,59.57
2018-09-26T08:30:27.543Z,56.49
2018-09-26T08:36:32.153Z,56.41
2018-09-26T08:42:37.048Z,56.21
2018-09-26T08:48:41.615Z,52.81
2018-09-26T08:54:46.514Z,49.98
2018-09-26T09:00:54.855Z,48.82
2018-09-26T09:07:00.124Z,47.16
2018-09-26T09:13:04.705Z,43.14
2018-09-26T09:19:09.318Z,42.31
2018-09-26T09:25:13.900Z,41.62
2018-09-26T09:31:18.504Z,41.41
2018-09-26T09:37:23.089Z,41.19
2018-09-26T09:43:27.685Z,38.83
2018-09-26T09:49:32.279Z,37.71
2018-09-26T09:55:36.825Z,36.27
2018-09-26T10:01:41.397Z,34.90
2018-09-26T10:07:45.961Z,35.98
2018-09-26T10:13:50.580Z,34.09
2018-09-26T10:19:55.169Z,31.15
2018-09-26T10:25:59.745Z,32.71
2018-09-26T10:32:04.320Z,34.20
2018-09-26T10:38:08.987Z,35.19
2018-09-26T10:44:13.876Z,35.23
2018-09-26T10:50:18.412Z,34.55
2018-09-26T10:56:23.104Z,33.78
2018-09-26T11:02:27.638Z,33.27
2018-09-26T11:08:32.200Z,33.31
2018-09-26T11:14:37.104Z,35.22
2018-09-26T11:20:41.692Z,33.65
2018-09-26T11:26:46.282Z,31.78
2018-09-26T11:32:50.877Z,30.75
2018-09-26T11:38:55.849Z,29.15
2018-09-26T11:45:00.766Z,28.46
2018-09-26T11:51:05.399Z,28.98
2018-09-26T11:57:10.274Z,29.78
2018-09-26T12:03:17.600Z,29.75
2018-09-26T12:09:22.447Z,31.44
2018-09-26T12:15:27.284Z,30.11
2018-09-26T12:21:31.849Z,29.73
2018-09-26T12:27:36.442Z,30.45
2018-09-26T12:33:41.036Z,28.93
2018-09-26T12:39:46.606Z,30.20
2018-09-26T12:45:51.205Z,28.71
2018-09-26T12:51:55.758Z,28.40
2018-09-26T12:58:00.313Z,29.28
2018-09-26T13:04:04.907Z,29.83
2018-09-26T13:10:09.579Z,29.94
2018-09-26T13:16:14.182Z,28.44
2018-09-26T13:22:19.252Z,26.36
2018-09-26T13:28:24.167Z,26.29
2018-09-26T13:34:28.950Z,24.64
2018-09-26T13:40:33.497Z,26.10
2018-09-26T13:46:38.160Z,25.12
2018-09-26T13:52:42.637Z,24.01
2018-09-26T13:58:47.504Z,23.60
2018-09-26T14:04:52.056Z,23.46
2018-09-26T14:10:56.939Z,23.32
2018-09-26T14:17:01.545Z,22.97
2018-09-26T14:23:06.205Z,23.68
2018-09-26T14:29:10.930Z,24.39
2018-09-26T14:35:16.002Z,25.12
2018-09-26T14:41:20.612Z,24.78
2018-09-26T14:47:25.246Z,24.22
2018-09-26T14:53:29.818Z,24.49
2018-09-26T14:59:34.491Z,24.56
2018-09-26T15:05:39.084Z,24.66
2018-09-26T15:11:43.930Z,25.18
2018-09-26T15:17:48.526Z,25.73
2018-09-26T15:23:53.397Z,25.33
2018-09-26T15:29:57.977Z,27.43
2018-09-26T15:36:02.623Z,28.39
2018-09-26T15:42:07.574Z,25.93
2018-09-26T15:48:12.492Z,26.99
2018-09-26T15:54:17.033Z,26.18
2018-09-26T16:00:21.653Z,25.17
2018-09-26T16:06:26.189Z,27.18
2018-09-26T16:12:30.777Z,30.83
2018-09-26T16:18:35.647Z,33.13
2018-09-26T16:24:40.242Z,34.44
2018-09-26T16:30:45.427Z,32.86
2018-09-26T16:36:49.980Z,29.37
2018-09-26T16:42:54.858Z,29.38
2018-09-26T16:48:59.461Z,30.81
2018-09-26T16:55:04.445Z,35.77
2018-09-26T17:01:09.002Z,39.53
2018-09-26T17:07:13.614Z,42.06
2018-09-26T17:13:19.036Z,45.08
2018-09-26T17:19:23.723Z,47.84
2018-09-26T17:25:28.287Z,48.46
2018-09-26T17:31:32.848Z,47.29
2018-09-26T17:37:37.784Z,50.81
2018-09-26T17:43:42.703Z,50.29
2018-09-26T17:49:47.309Z,51.51
2018-09-26T17:55:52.270Z,50.84
2018-09-26T18:01:56.843Z,51.65
2018-09-26T18:08:01.424Z,52.36
2018-09-26T18:14:07.082Z,53.28
2018-09-26T18:20:12.026Z,53.02
2018-09-26T18:26:16.602Z,52.88
2018-09-26T18:32:21.497Z,54.47
2018-09-26T18:38:26.464Z,55.54
2018-09-26T18:44:31.395Z,55.23
2018-09-26T18:50:36.293Z,56.38
2018-09-26T18:56:40.877Z,53.42
2018-09-26T19:02:45.824Z,53.22
2018-09-26T19:08:50.391Z,51.43
2018-09-26T19:14:55.601Z,51.64
2018-09-26T19:21:00.276Z,51.31
2018-09-26T19:27:05.064Z,52.12
2018-09-26T19:33:09.764Z,51.11
2018-09-26T19:39:14.274Z,54.31
2018-09-26T19:45:18.850Z,54.51
2018-09-26T19:51:23.400Z,56.05
2018-09-26T19:57:27.944Z,56.28
2018-09-26T20:03:32.482Z,56.70
2018-09-26T20:09:37.330Z,55.40
2018-09-26T20:15:41.879Z,55.67
2018-09-26T20:21:47.338Z,54.28
2018-09-26T20:27:51.927Z,55.53
2018-09-26T20:33:56.830Z,56.45
2018-09-26T20:40:01.630Z,56.12
2018-09-26T20:46:06.411Z,54.63
2018-09-26T20:52:10.997Z,55.12
2018-09-26T20:58:15.627Z,55.75
2018-09-26T21:04:20.181Z,55.29
2018-09-26T21:10:24.803Z,56.38
2018-09-26T21:16:29.408Z,56.14
2018-09-26T21:22:34.286Z,55.62
2018-09-26T21:28:39.139Z,56.61
2018-09-26T21:34:43.699Z,57.82
2018-09-26T21:40:48.653Z,58.14
2018-09-26T21:46:53.578Z,58.96
2018-09-26T21:52:58.169Z,59.58
2018-09-26T21:59:03.128Z,58.57
2018-09-26T22:05:07.804Z,58.37
2018-09-26T22:11:12.346Z,58.55
2018-09-26T22:17:17.232Z,59.06
2018-09-26T22:23:22.125Z,60.16
2018-09-26T22:29:27.097Z,59.99
2018-09-26T22:35:31.677Z,60.54
2018-09-26T22:41:36.352Z,60.89
2018-09-26T22:47:40.931Z,60.23
2018-09-26T22:53:45.526Z,59.68
2018-09-26T22:59:50.072Z,60.28
2018-09-26T23:05:54.974Z,61.21
2018-09-26T23:11:59.528Z,60.72
2018-09-26T23:18:04.465Z,60.25
2018-09-26T23:24:09.459Z,59.89
2018-09-26T23:30:14.059Z,60.08
2018-09-26T23:36:18.642Z,61.61
2018-09-26T23:42:23.185Z,60.10
2018-09-26T23:48:27.739Z,61.53
2018-09-26T23:54:32.698Z,63.51
